sensor_id;sensor_type;location;lat;lon;timestamp;P1;durP1;ratioP1;P2;durP2;ratioP2
41685;SDS011;27370;42.764;23.432;2023-02-03T00:00:59;14.25;;;6.72;;
41685;SDS011;27370;42.764;23.432;2023-02-03T00:03:25;15.80;;;8.10;;
41685;SDS011;27370;42.764;23.432;2023-02-03T00:05:51;16.38;;;8.20;;
41685;SDS011;27370;42.764;23.432;2023-02-03T00:08:17;13.27;;;7.70;;
41685;SDS011;27370;42.764;23.432;2023-02-03T00:10:44;13.45;;;7.38;;
41685;SDS011;27370;42.764;23.432;2023-02-03T00:13:10;13.90;;;7.50;;
41685;SDS011;27370;42.764;23.432;2023-02-03T00:15:37;13.02;;;7.05;;
41685;SDS011;27370;42.764;23.432;2023-02-03T00:18:02;14.75;;;7.65;;
41685;SDS011;27370;42.764;23.432;2023-02-03T00:20:28;15.05;;;7.13;;
41685;SDS011;27370;42.764;23.432;2023-02-03T00:22:53;14.30;;;7.50;;
41685;SDS011;27370;42.764;23.432;2023-02-03T00:25:21;13.90;;;7.00;;
41685;SDS011;27370;42.764;23.432;2023-02-03T00:27:46;15.02;;;7.43;;
41685;SDS011;27370;42.764;23.432;2023-02-03T00:30:12;14.25;;;7.60;;
41685;SDS011;27370;42.764;23.432;2023-02-03T00:32:37;14.20;;;7.68;;
41685;SDS011;27370;42.764;23.432;2023-02-03T00:35:03;13.43;;;7.45;;
41685;SDS011;27370;42.764;23.432;2023-02-03T00:37:29;13.95;;;7.65;;
41685;SDS011;27370;42.764;23.432;2023-02-03T00:39:54;14.45;;;7.50;;
41685;SDS011;27370;42.764;23.432;2023-02-03T00:42:20;13.95;;;7.22;;
41685;SDS011;27370;42.764;23.432;2023-02-03T00:44:45;14.13;;;7.57;;
41685;SDS011;27370;42.764;23.432;2023-02-03T00:47:11;13.88;;;8.30;;
41685;SDS011;27370;42.764;23.432;2023-02-03T00:49:36;13.15;;;6.68;;
41685;SDS011;27370;42.764;23.432;2023-02-03T00:52:02;12.45;;;6.93;;
41685;SDS011;27370;42.764;23.432;2023-02-03T00:54:28;12.32;;;6.80;;
41685;SDS011;27370;42.764;23.432;2023-02-03T00:56:53;13.50;;;6.97;;
41685;SDS011;27370;42.764;23.432;2023-02-03T00:59:19;12.93;;;6.93;;
41685;SDS011;27370;42.764;23.432;2023-02-03T01:01:45;13.27;;;6.53;;
41685;SDS011;27370;42.764;23.432;2023-02-03T01:04:11;12.35;;;6.78;;
41685;SDS011;27370;42.764;23.432;2023-02-03T01:06:36;13.15;;;7.38;;
41685;SDS011;27370;42.764;23.432;2023-02-03T01:09:05;14.02;;;7.88;;
41685;SDS011;27370;42.764;23.432;2023-02-03T01:11:32;18.90;;;10.18;;
41685;SDS011;27370;42.764;23.432;2023-02-03T01:13:58;21.40;;;11.00;;
41685;SDS011;27370;42.764;23.432;2023-02-03T01:16:27;15.63;;;9.13;;
41685;SDS011;27370;42.764;23.432;2023-02-03T01:18:54;14.73;;;7.63;;
41685;SDS011;27370;42.764;23.432;2023-02-03T01:21:21;15.75;;;8.88;;
41685;SDS011;27370;42.764;23.432;2023-02-03T01:23:51;12.45;;;7.00;;
41685;SDS011;27370;42.764;23.432;2023-02-03T01:26:18;14.10;;;7.88;;
41685;SDS011;27370;42.764;23.432;2023-02-03T01:28:56;13.57;;;7.77;;
41685;SDS011;27370;42.764;23.432;2023-02-03T01:31:25;13.27;;;7.22;;
41685;SDS011;27370;42.764;23.432;2023-02-03T01:33:52;15.52;;;8.00;;
41685;SDS011;27370;42.764;23.432;2023-02-03T01:36:19;13.65;;;7.55;;
41685;SDS011;27370;42.764;23.432;2023-02-03T01:38:47;14.13;;;7.07;;
41685;SDS011;27370;42.764;23.432;2023-02-03T01:41:13;12.13;;;6.80;;
41685;SDS011;27370;42.764;23.432;2023-02-03T01:43:44;13.57;;;6.65;;
41685;SDS011;27370;42.764;23.432;2023-02-03T01:51:34;9.88;;;4.88;;
41685;SDS011;27370;42.764;23.432;2023-02-03T01:54:02;10.07;;;5.47;;
41685;SDS011;27370;42.764;23.432;2023-02-03T01:56:31;11.23;;;5.90;;
41685;SDS011;27370;42.764;23.432;2023-02-03T02:01:26;11.43;;;5.28;;
41685;SDS011;27370;42.764;23.432;2023-02-03T02:03:55;10.52;;;5.38;;
41685;SDS011;27370;42.764;23.432;2023-02-03T02:06:24;9.05;;;4.75;;
41685;SDS011;27370;42.764;23.432;2023-02-03T02:08:50;12.68;;;6.28;;
41685;SDS011;27370;42.764;23.432;2023-02-03T02:11:17;9.63;;;4.78;;
41685;SDS011;27370;42.764;23.432;2023-02-03T02:13:45;7.82;;;4.00;;
41685;SDS011;27370;42.764;23.432;2023-02-03T02:25:01;10.27;;;4.38;;
41685;SDS011;27370;42.764;23.432;2023-02-03T02:27:56;9.07;;;4.28;;
41685;SDS011;27370;42.764;23.432;2023-02-03T02:36:02;8.43;;;4.07;;
41685;SDS011;27370;42.764;23.432;2023-02-03T02:41:34;9.90;;;3.92;;
41685;SDS011;27370;42.764;23.432;2023-02-03T02:44:07;10.70;;;4.80;;
41685;SDS011;27370;42.764;23.432;2023-02-03T02:52:08;10.50;;;4.90;;
41685;SDS011;27370;42.764;23.432;2023-02-03T02:54:39;9.60;;;4.65;;
41685;SDS011;27370;42.764;23.432;2023-02-03T02:57:09;9.02;;;4.80;;
41685;SDS011;27370;42.764;23.432;2023-02-03T02:59:38;10.40;;;5.70;;
41685;SDS011;27370;42.764;23.432;2023-02-03T03:02:03;9.20;;;5.10;;
41685;SDS011;27370;42.764;23.432;2023-02-03T03:04:30;9.32;;;4.82;;
41685;SDS011;27370;42.764;23.432;2023-02-03T03:06:59;10.80;;;5.10;;
41685;SDS011;27370;42.764;23.432;2023-02-03T03:09:41;9.70;;;4.93;;
41685;SDS011;27370;42.764;23.432;2023-02-03T03:15:07;8.05;;;4.53;;
41685;SDS011;27370;42.764;23.432;2023-02-03T03:17:41;9.38;;;4.65;;
41685;SDS011;27370;42.764;23.432;2023-02-03T03:20:12;8.95;;;5.03;;
41685;SDS011;27370;42.764;23.432;2023-02-03T03:22:44;9.93;;;5.50;;
41685;SDS011;27370;42.764;23.432;2023-02-03T03:25:20;10.82;;;6.00;;
41685;SDS011;27370;42.764;23.432;2023-02-03T03:28:00;10.38;;;5.63;;
41685;SDS011;27370;42.764;23.432;2023-02-03T03:30:31;10.07;;;5.80;;
41685;SDS011;27370;42.764;23.432;2023-02-03T03:32:58;12.15;;;6.60;;
41685;SDS011;27370;42.764;23.432;2023-02-03T03:35:27;12.52;;;6.80;;
41685;SDS011;27370;42.764;23.432;2023-02-03T03:38:04;11.35;;;7.00;;
41685;SDS011;27370;42.764;23.432;2023-02-03T03:40:37;11.10;;;6.35;;
41685;SDS011;27370;42.764;23.432;2023-02-03T03:43:14;12.02;;;6.22;;
41685;SDS011;27370;42.764;23.432;2023-02-03T03:45:46;11.98;;;6.47;;
41685;SDS011;27370;42.764;23.432;2023-02-03T03:50:58;10.88;;;5.70;;
41685;SDS011;27370;42.764;23.432;2023-02-03T03:53:29;11.90;;;5.53;;
41685;SDS011;27370;42.764;23.432;2023-02-03T03:55:59;11.57;;;5.85;;
41685;SDS011;27370;42.764;23.432;2023-02-03T03:58:30;11.07;;;5.72;;
41685;SDS011;27370;42.764;23.432;2023-02-03T04:00:57;10.27;;;5.68;;
41685;SDS011;27370;42.764;23.432;2023-02-03T04:03:31;9.93;;;5.50;;
41685;SDS011;27370;42.764;23.432;2023-02-03T04:06:02;10.65;;;5.70;;
41685;SDS011;27370;42.764;23.432;2023-02-03T04:08:27;11.98;;;5.70;;
41685;SDS011;27370;42.764;23.432;2023-02-03T04:10:53;10.35;;;5.45;;
41685;SDS011;27370;42.764;23.432;2023-02-03T04:13:18;10.38;;;5.35;;
41685;SDS011;27370;42.764;23.432;2023-02-03T04:15:44;9.18;;;5.07;;
41685;SDS011;27370;42.764;23.432;2023-02-03T04:18:14;8.88;;;4.47;;
41685;SDS011;27370;42.764;23.432;2023-02-03T04:20:40;8.57;;;4.85;;
41685;SDS011;27370;42.764;23.432;2023-02-03T04:23:05;11.05;;;5.28;;
41685;SDS011;27370;42.764;23.432;2023-02-03T04:25:31;9.63;;;5.32;;
41685;SDS011;27370;42.764;23.432;2023-02-03T04:27:57;9.65;;;5.53;;
41685;SDS011;27370;42.764;23.432;2023-02-03T04:30:22;7.38;;;3.90;;
41685;SDS011;27370;42.764;23.432;2023-02-03T04:32:48;7.47;;;4.00;;
41685;SDS011;27370;42.764;23.432;2023-02-03T04:35:14;7.47;;;4.25;;
41685;SDS011;27370;42.764;23.432;2023-02-03T04:37:40;10.27;;;4.70;;
41685;SDS011;27370;42.764;23.432;2023-02-03T04:40:06;7.40;;;4.18;;
41685;SDS011;27370;42.764;23.432;2023-02-03T04:42:32;11.15;;;5.25;;
41685;SDS011;27370;42.764;23.432;2023-02-03T04:44:57;12.90;;;6.00;;
41685;SDS011;27370;42.764;23.432;2023-02-03T04:47:23;12.52;;;6.03;;
41685;SDS011;27370;42.764;23.432;2023-02-03T04:49:48;10.82;;;5.75;;
41685;SDS011;27370;42.764;23.432;2023-02-03T04:52:14;11.20;;;5.65;;
41685;SDS011;27370;42.764;23.432;2023-02-03T04:54:39;11.25;;;5.68;;
41685;SDS011;27370;42.764;23.432;2023-02-03T04:57:05;12.70;;;5.72;;
41685;SDS011;27370;42.764;23.432;2023-02-03T04:59:31;11.70;;;5.78;;
41685;SDS011;27370;42.764;23.432;2023-02-03T05:01:57;10.70;;;5.32;;
41685;SDS011;27370;42.764;23.432;2023-02-03T05:04:22;10.00;;;5.28;;
41685;SDS011;27370;42.764;23.432;2023-02-03T05:06:48;9.82;;;5.03;;
41685;SDS011;27370;42.764;23.432;2023-02-03T05:09:14;10.48;;;5.15;;
41685;SDS011;27370;42.764;23.432;2023-02-03T05:11:41;10.18;;;5.00;;
41685;SDS011;27370;42.764;23.432;2023-02-03T05:14:06;11.32;;;5.55;;
41685;SDS011;27370;42.764;23.432;2023-02-03T05:16:32;10.88;;;5.72;;
41685;SDS011;27370;42.764;23.432;2023-02-03T05:18:57;9.30;;;4.95;;
41685;SDS011;27370;42.764;23.432;2023-02-03T05:21:23;9.75;;;4.70;;
41685;SDS011;27370;42.764;23.432;2023-02-03T05:23:48;10.15;;;4.60;;
41685;SDS011;27370;42.764;23.432;2023-02-03T05:26:14;8.45;;;4.50;;
41685;SDS011;27370;42.764;23.432;2023-02-03T05:28:40;10.30;;;5.00;;
41685;SDS011;27370;42.764;23.432;2023-02-03T05:31:05;11.25;;;5.68;;
41685;SDS011;27370;42.764;23.432;2023-02-03T05:33:31;11.68;;;5.30;;
41685;SDS011;27370;42.764;23.432;2023-02-03T05:35:56;9.25;;;5.07;;
41685;SDS011;27370;42.764;23.432;2023-02-03T05:38:22;12.43;;;5.75;;
41685;SDS011;27370;42.764;23.432;2023-02-03T05:40:49;11.75;;;5.82;;
41685;SDS011;27370;42.764;23.432;2023-02-03T05:43:35;11.95;;;5.43;;
41685;SDS011;27370;42.764;23.432;2023-02-03T05:46:01;10.45;;;5.57;;
41685;SDS011;27370;42.764;23.432;2023-02-03T05:48:28;15.82;;;8.27;;
41685;SDS011;27370;42.764;23.432;2023-02-03T05:50:54;13.75;;;6.68;;
41685;SDS011;27370;42.764;23.432;2023-02-03T05:53:20;14.05;;;8.05;;
41685;SDS011;27370;42.764;23.432;2023-02-03T05:55:45;10.48;;;6.03;;
41685;SDS011;27370;42.764;23.432;2023-02-03T05:58:11;11.73;;;5.70;;
41685;SDS011;27370;42.764;23.432;2023-02-03T06:00:36;11.43;;;6.70;;
41685;SDS011;27370;42.764;23.432;2023-02-03T06:03:02;32.22;;;18.15;;
41685;SDS011;27370;42.764;23.432;2023-02-03T06:05:29;26.35;;;12.68;;
41685;SDS011;27370;42.764;23.432;2023-02-03T06:07:55;14.57;;;7.00;;
41685;SDS011;27370;42.764;23.432;2023-02-03T06:10:21;14.95;;;8.13;;
41685;SDS011;27370;42.764;23.432;2023-02-03T06:12:47;15.43;;;7.80;;
41685;SDS011;27370;42.764;23.432;2023-02-03T06:15:13;22.35;;;11.82;;
41685;SDS011;27370;42.764;23.432;2023-02-03T06:17:39;13.18;;;6.35;;
41685;SDS011;27370;42.764;23.432;2023-02-03T06:20:08;13.13;;;7.50;;
41685;SDS011;27370;42.764;23.432;2023-02-03T06:22:35;11.75;;;6.43;;
41685;SDS011;27370;42.764;23.432;2023-02-03T06:25:00;11.93;;;5.72;;
41685;SDS011;27370;42.764;23.432;2023-02-03T06:27:26;12.70;;;5.82;;
41685;SDS011;27370;42.764;23.432;2023-02-03T06:29:51;13.48;;;6.25;;
41685;SDS011;27370;42.764;23.432;2023-02-03T06:32:17;11.10;;;5.88;;
41685;SDS011;27370;42.764;23.432;2023-02-03T06:34:42;11.63;;;6.40;;
41685;SDS011;27370;42.764;23.432;2023-02-03T06:37:08;10.63;;;5.63;;
41685;SDS011;27370;42.764;23.432;2023-02-03T06:39:33;10.90;;;5.95;;
41685;SDS011;27370;42.764;23.432;2023-02-03T06:41:59;9.80;;;5.22;;
41685;SDS011;27370;42.764;23.432;2023-02-03T06:44:25;15.05;;;7.28;;
41685;SDS011;27370;42.764;23.432;2023-02-03T06:46:50;26.15;;;10.48;;
41685;SDS011;27370;42.764;23.432;2023-02-03T06:49:16;9.90;;;4.65;;
41685;SDS011;27370;42.764;23.432;2023-02-03T06:51:42;9.23;;;4.85;;
41685;SDS011;27370;42.764;23.432;2023-02-03T06:54:11;9.13;;;4.43;;
41685;SDS011;27370;42.764;23.432;2023-02-03T06:59:03;8.15;;;4.03;;
41685;SDS011;27370;42.764;23.432;2023-02-03T07:01:29;11.52;;;5.80;;
41685;SDS011;27370;42.764;23.432;2023-02-03T07:03:55;8.63;;;4.38;;
41685;SDS011;27370;42.764;23.432;2023-02-03T07:06:26;9.40;;;4.95;;
41685;SDS011;27370;42.764;23.432;2023-02-03T07:08:56;7.82;;;4.38;;
41685;SDS011;27370;42.764;23.432;2023-02-03T07:13:49;10.15;;;4.80;;
41685;SDS011;27370;42.764;23.432;2023-02-03T07:16:15;10.00;;;5.68;;
41685;SDS011;27370;42.764;23.432;2023-02-03T07:18:40;8.45;;;4.40;;
41685;SDS011;27370;42.764;23.432;2023-02-03T07:21:06;9.68;;;4.20;;
41685;SDS011;27370;42.764;23.432;2023-02-03T07:23:32;8.57;;;4.30;;
41685;SDS011;27370;42.764;23.432;2023-02-03T07:26:01;8.68;;;4.22;;
41685;SDS011;27370;42.764;23.432;2023-02-03T07:28:29;6.30;;;3.63;;
41685;SDS011;27370;42.764;23.432;2023-02-03T07:30:55;8.05;;;4.03;;
41685;SDS011;27370;42.764;23.432;2023-02-03T07:33:21;6.88;;;3.72;;
41685;SDS011;27370;42.764;23.432;2023-02-03T07:35:50;6.35;;;3.50;;
41685;SDS011;27370;42.764;23.432;2023-02-03T07:38:17;7.40;;;3.72;;
41685;SDS011;27370;42.764;23.432;2023-02-03T07:40:43;6.07;;;3.42;;
41685;SDS011;27370;42.764;23.432;2023-02-03T07:43:08;5.03;;;2.78;;
41685;SDS011;27370;42.764;23.432;2023-02-03T07:45:34;5.68;;;3.08;;
41685;SDS011;27370;42.764;23.432;2023-02-03T07:47:59;6.82;;;3.33;;
41685;SDS011;27370;42.764;23.432;2023-02-03T07:50:25;5.43;;;3.20;;
41685;SDS011;27370;42.764;23.432;2023-02-03T07:52:50;6.32;;;2.78;;
41685;SDS011;27370;42.764;23.432;2023-02-03T07:55:16;4.78;;;2.63;;
41685;SDS011;27370;42.764;23.432;2023-02-03T07:57:42;5.82;;;3.20;;
41685;SDS011;27370;42.764;23.432;2023-02-03T08:00:12;5.85;;;2.80;;
41685;SDS011;27370;42.764;23.432;2023-02-03T08:02:40;7.13;;;2.70;;
41685;SDS011;27370;42.764;23.432;2023-02-03T08:07:35;6.90;;;3.38;;
41685;SDS011;27370;42.764;23.432;2023-02-03T08:10:00;6.68;;;3.25;;
41685;SDS011;27370;42.764;23.432;2023-02-03T08:12:26;6.65;;;2.58;;
41685;SDS011;27370;42.764;23.432;2023-02-03T08:14:52;3.40;;;1.88;;
41685;SDS011;27370;42.764;23.432;2023-02-03T08:17:17;5.05;;;2.75;;
41685;SDS011;27370;42.764;23.432;2023-02-03T08:19:43;5.72;;;2.90;;
41685;SDS011;27370;42.764;23.432;2023-02-03T08:22:09;3.42;;;2.05;;
41685;SDS011;27370;42.764;23.432;2023-02-03T08:24:40;4.78;;;2.10;;
41685;SDS011;27370;42.764;23.432;2023-02-03T08:27:13;3.97;;;2.17;;
41685;SDS011;27370;42.764;23.432;2023-02-03T08:29:40;4.55;;;2.45;;
41685;SDS011;27370;42.764;23.432;2023-02-03T08:32:11;4.85;;;2.30;;
41685;SDS011;27370;42.764;23.432;2023-02-03T08:34:38;4.30;;;2.05;;
41685;SDS011;27370;42.764;23.432;2023-02-03T08:37:03;3.42;;;1.88;;
41685;SDS011;27370;42.764;23.432;2023-02-03T08:39:31;2.67;;;1.67;;
41685;SDS011;27370;42.764;23.432;2023-02-03T08:41:57;2.97;;;1.40;;
41685;SDS011;27370;42.764;23.432;2023-02-03T08:44:23;2.67;;;1.70;;
41685;SDS011;27370;42.764;23.432;2023-02-03T08:46:49;2.15;;;1.60;;
41685;SDS011;27370;42.764;23.432;2023-02-03T08:49:16;4.78;;;1.80;;
41685;SDS011;27370;42.764;23.432;2023-02-03T08:51:42;4.32;;;1.60;;
41685;SDS011;27370;42.764;23.432;2023-02-03T08:54:09;2.35;;;1.20;;
41685;SDS011;27370;42.764;23.432;2023-02-03T08:56:35;3.38;;;1.70;;
41685;SDS011;27370;42.764;23.432;2023-02-03T08:59:01;4.03;;;1.80;;
41685;SDS011;27370;42.764;23.432;2023-02-03T09:01:26;4.75;;;1.50;;
41685;SDS011;27370;42.764;23.432;2023-02-03T09:03:53;2.90;;;1.33;;
41685;SDS011;27370;42.764;23.432;2023-02-03T09:06:19;3.72;;;1.75;;
41685;SDS011;27370;42.764;23.432;2023-02-03T09:08:46;3.08;;;1.40;;
41685;SDS011;27370;42.764;23.432;2023-02-03T09:11:13;4.35;;;1.80;;
41685;SDS011;27370;42.764;23.432;2023-02-03T09:13:41;2.90;;;1.30;;
41685;SDS011;27370;42.764;23.432;2023-02-03T09:16:12;1.40;;;1.17;;
41685;SDS011;27370;42.764;23.432;2023-02-03T09:18:41;1.30;;;1.08;;
41685;SDS011;27370;42.764;23.432;2023-02-03T09:21:08;4.40;;;1.90;;
41685;SDS011;27370;42.764;23.432;2023-02-03T09:23:38;3.95;;;1.98;;
41685;SDS011;27370;42.764;23.432;2023-02-03T09:26:08;3.88;;;1.70;;
41685;SDS011;27370;42.764;23.432;2023-02-03T09:28:38;3.45;;;1.70;;
41685;SDS011;27370;42.764;23.432;2023-02-03T09:31:05;3.20;;;1.67;;
41685;SDS011;27370;42.764;23.432;2023-02-03T09:33:32;2.75;;;1.50;;
41685;SDS011;27370;42.764;23.432;2023-02-03T09:35:58;3.47;;;1.63;;
41685;SDS011;27370;42.764;23.432;2023-02-03T09:38:24;4.20;;;1.73;;
41685;SDS011;27370;42.764;23.432;2023-02-03T09:41:11;3.13;;;1.77;;
41685;SDS011;27370;42.764;23.432;2023-02-03T09:46:26;4.03;;;1.73;;
41685;SDS011;27370;42.764;23.432;2023-02-03T09:49:14;5.13;;;1.73;;
41685;SDS011;27370;42.764;23.432;2023-02-03T09:51:45;4.45;;;2.03;;
41685;SDS011;27370;42.764;23.432;2023-02-03T09:54:25;2.50;;;1.60;;
41685;SDS011;27370;42.764;23.432;2023-02-03T09:56:55;4.13;;;1.67;;
41685;SDS011;27370;42.764;23.432;2023-02-03T09:59:24;5.45;;;2.65;;
41685;SDS011;27370;42.764;23.432;2023-02-03T10:06:52;4.80;;;1.90;;
41685;SDS011;27370;42.764;23.432;2023-02-03T10:09:34;3.42;;;1.67;;
41685;SDS011;27370;42.764;23.432;2023-02-03T10:13:14;2.20;;;1.45;;
41685;SDS011;27370;42.764;23.432;2023-02-03T10:17:55;4.53;;;1.73;;
41685;SDS011;27370;42.764;23.432;2023-02-03T10:20:33;3.75;;;1.40;;
41685;SDS011;27370;42.764;23.432;2023-02-03T10:23:06;2.15;;;1.40;;
41685;SDS011;27370;42.764;23.432;2023-02-03T10:26:13;2.10;;;1.30;;
41685;SDS011;27370;42.764;23.432;2023-02-03T10:28:54;2.38;;;1.50;;
41685;SDS011;27370;42.764;23.432;2023-02-03T10:31:22;2.63;;;1.50;;
41685;SDS011;27370;42.764;23.432;2023-02-03T10:33:54;2.92;;;1.63;;
41685;SDS011;27370;42.764;23.432;2023-02-03T10:36:29;4.18;;;1.70;;
41685;SDS011;27370;42.764;23.432;2023-02-03T10:41:29;3.50;;;2.08;;
41685;SDS011;27370;42.764;23.432;2023-02-03T10:43:56;2.17;;;1.40;;
41685;SDS011;27370;42.764;23.432;2023-02-03T10:46:28;2.50;;;1.50;;
41685;SDS011;27370;42.764;23.432;2023-02-03T10:48:56;4.30;;;1.50;;
41685;SDS011;27370;42.764;23.432;2023-02-03T10:51:56;2.15;;;1.20;;
41685;SDS011;27370;42.764;23.432;2023-02-03T10:57:01;4.88;;;2.10;;
41685;SDS011;27370;42.764;23.432;2023-02-03T10:59:35;2.33;;;1.48;;
41685;SDS011;27370;42.764;23.432;2023-02-03T11:02:07;2.38;;;1.50;;
41685;SDS011;27370;42.764;23.432;2023-02-03T11:07:42;4.65;;;1.80;;
41685;SDS011;27370;42.764;23.432;2023-02-03T11:13:08;2.10;;;1.50;;
41685;SDS011;27370;42.764;23.432;2023-02-03T11:15:36;3.33;;;2.00;;
41685;SDS011;27370;42.764;23.432;2023-02-03T11:18:02;3.13;;;1.55;;
41685;SDS011;27370;42.764;23.432;2023-02-03T11:20:28;3.65;;;1.70;;
41685;SDS011;27370;42.764;23.432;2023-02-03T11:22:53;1.73;;;1.30;;
41685;SDS011;27370;42.764;23.432;2023-02-03T11:25:26;4.35;;;1.80;;
41685;SDS011;27370;42.764;23.432;2023-02-03T11:27:56;2.17;;;1.40;;
41685;SDS011;27370;42.764;23.432;2023-02-03T11:30:29;2.67;;;1.70;;
41685;SDS011;27370;42.764;23.432;2023-02-03T11:32:54;2.95;;;1.60;;
41685;SDS011;27370;42.764;23.432;2023-02-03T11:35:22;3.97;;;1.52;;
41685;SDS011;27370;42.764;23.432;2023-02-03T11:37:50;2.83;;;1.60;;
41685;SDS011;27370;42.764;23.432;2023-02-03T11:45:21;4.03;;;1.80;;
41685;SDS011;27370;42.764;23.432;2023-02-03T11:48:01;3.28;;;1.77;;
41685;SDS011;27370;42.764;23.432;2023-02-03T11:50:43;3.75;;;1.95;;
41685;SDS011;27370;42.764;23.432;2023-02-03T11:56:22;2.88;;;1.42;;
41685;SDS011;27370;42.764;23.432;2023-02-03T12:01:51;2.72;;;1.52;;
41685;SDS011;27370;42.764;23.432;2023-02-03T12:04:47;3.22;;;1.45;;
41685;SDS011;27370;42.764;23.432;2023-02-03T12:07:45;3.65;;;1.50;;
41685;SDS011;27370;42.764;23.432;2023-02-03T12:30:17;4.47;;;1.33;;
41685;SDS011;27370;42.764;23.432;2023-02-03T12:32:50;2.03;;;1.33;;
41685;SDS011;27370;42.764;23.432;2023-02-03T12:35:26;3.35;;;1.75;;
41685;SDS011;27370;42.764;23.432;2023-02-03T12:40:56;1.92;;;1.38;;
41685;SDS011;27370;42.764;23.432;2023-02-03T12:51:47;3.35;;;1.60;;
41685;SDS011;27370;42.764;23.432;2023-02-03T12:54:36;2.53;;;1.30;;
41685;SDS011;27370;42.764;23.432;2023-02-03T12:57:12;3.17;;;1.80;;
41685;SDS011;27370;42.764;23.432;2023-02-03T12:59:45;3.75;;;1.73;;
41685;SDS011;27370;42.764;23.432;2023-02-03T13:02:21;4.50;;;1.80;;
41685;SDS011;27370;42.764;23.432;2023-02-03T13:05:01;5.10;;;1.60;;
41685;SDS011;27370;42.764;23.432;2023-02-03T13:07:35;5.75;;;1.90;;
41685;SDS011;27370;42.764;23.432;2023-02-03T13:12:48;3.80;;;1.90;;
41685;SDS011;27370;42.764;23.432;2023-02-03T13:17:44;3.97;;;1.65;;
41685;SDS011;27370;42.764;23.432;2023-02-03T13:20:16;3.42;;;1.70;;
41685;SDS011;27370;42.764;23.432;2023-02-03T13:22:44;3.85;;;1.83;;
41685;SDS011;27370;42.764;23.432;2023-02-03T13:25:19;4.88;;;2.00;;
41685;SDS011;27370;42.764;23.432;2023-02-03T13:39:31;4.28;;;2.00;;
41685;SDS011;27370;42.764;23.432;2023-02-03T13:45:18;3.75;;;1.88;;
41685;SDS011;27370;42.764;23.432;2023-02-03T13:47:48;4.90;;;1.90;;
41685;SDS011;27370;42.764;23.432;2023-02-03T13:50:19;4.78;;;1.80;;
41685;SDS011;27370;42.764;23.432;2023-02-03T13:55:32;3.17;;;1.42;;
41685;SDS011;27370;42.764;23.432;2023-02-03T13:58:04;3.08;;;1.50;;
41685;SDS011;27370;42.764;23.432;2023-02-03T14:03:42;4.40;;;2.20;;
41685;SDS011;27370;42.764;23.432;2023-02-03T14:06:00;3.95;;;1.90;;
41685;SDS011;27370;42.764;23.432;2023-02-03T14:14:00;5.75;;;2.25;;
41685;SDS011;27370;42.764;23.432;2023-02-03T14:16:41;4.78;;;2.22;;
41685;SDS011;27370;42.764;23.432;2023-02-03T14:19:12;5.43;;;2.58;;
41685;SDS011;27370;42.764;23.432;2023-02-03T14:24:13;5.40;;;2.45;;
41685;SDS011;27370;42.764;23.432;2023-02-03T14:26:44;6.93;;;2.90;;
41685;SDS011;27370;42.764;23.432;2023-02-03T14:32:09;5.45;;;2.30;;
41685;SDS011;27370;42.764;23.432;2023-02-03T14:34:37;6.00;;;2.40;;
41685;SDS011;27370;42.764;23.432;2023-02-03T14:37:09;6.10;;;2.50;;
41685;SDS011;27370;42.764;23.432;2023-02-03T14:43:01;8.13;;;3.10;;
41685;SDS011;27370;42.764;23.432;2023-02-03T15:07:56;8.65;;;3.35;;
41685;SDS011;27370;42.764;23.432;2023-02-03T15:10:25;8.77;;;3.65;;
41685;SDS011;27370;42.764;23.432;2023-02-03T15:12:55;19.65;;;7.70;;
41685;SDS011;27370;42.764;23.432;2023-02-03T15:15:29;13.02;;;5.78;;
41685;SDS011;27370;42.764;23.432;2023-02-03T15:17:58;8.55;;;3.63;;
41685;SDS011;27370;42.764;23.432;2023-02-03T15:20:44;10.38;;;4.75;;
41685;SDS011;27370;42.764;23.432;2023-02-03T15:23:18;10.02;;;4.07;;
41685;SDS011;27370;42.764;23.432;2023-02-03T15:25:45;9.50;;;4.20;;
41685;SDS011;27370;42.764;23.432;2023-02-03T15:28:18;10.15;;;4.30;;
41685;SDS011;27370;42.764;23.432;2023-02-03T15:30:46;9.90;;;4.07;;
41685;SDS011;27370;42.764;23.432;2023-02-03T15:33:19;11.00;;;4.45;;
41685;SDS011;27370;42.764;23.432;2023-02-03T15:35:47;9.38;;;4.70;;
41685;SDS011;27370;42.764;23.432;2023-02-03T15:38:59;8.48;;;3.70;;
41685;SDS011;27370;42.764;23.432;2023-02-03T15:41:10;10.80;;;3.85;;
41685;SDS011;27370;42.764;23.432;2023-02-03T15:43:56;9.30;;;4.00;;
41685;SDS011;27370;42.764;23.432;2023-02-03T15:46:30;12.73;;;4.88;;
41685;SDS011;27370;42.764;23.432;2023-02-03T15:49:03;13.18;;;5.85;;
41685;SDS011;27370;42.764;23.432;2023-02-03T15:51:47;15.52;;;7.05;;
41685;SDS011;27370;42.764;23.432;2023-02-03T15:57:18;14.77;;;6.07;;
41685;SDS011;27370;42.764;23.432;2023-02-03T15:59:54;12.85;;;5.60;;
41685;SDS011;27370;42.764;23.432;2023-02-03T16:02:41;10.77;;;5.13;;
41685;SDS011;27370;42.764;23.432;2023-02-03T16:07:53;11.73;;;4.97;;
41685;SDS011;27370;42.764;23.432;2023-02-03T16:10:28;10.95;;;4.65;;
41685;SDS011;27370;42.764;23.432;2023-02-03T16:18:33;22.48;;;4.93;;
41685;SDS011;27370;42.764;23.432;2023-02-03T16:21:02;14.38;;;6.68;;
41685;SDS011;27370;42.764;23.432;2023-02-03T16:23:28;14.43;;;7.03;;
41685;SDS011;27370;42.764;23.432;2023-02-03T16:26:11;17.23;;;8.25;;
41685;SDS011;27370;42.764;23.432;2023-02-03T16:31:47;17.38;;;9.15;;
41685;SDS011;27370;42.764;23.432;2023-02-03T16:34:31;22.13;;;10.43;;
41685;SDS011;27370;42.764;23.432;2023-02-03T16:37:22;25.92;;;12.98;;
41685;SDS011;27370;42.764;23.432;2023-02-03T16:40:09;23.50;;;10.40;;
41685;SDS011;27370;42.764;23.432;2023-02-03T16:42:54;15.48;;;8.55;;
41685;SDS011;27370;42.764;23.432;2023-02-03T16:45:38;16.65;;;8.52;;
41685;SDS011;27370;42.764;23.432;2023-02-03T16:48:23;20.65;;;9.13;;
41685;SDS011;27370;42.764;23.432;2023-02-03T16:51:11;15.48;;;7.15;;
41685;SDS011;27370;42.764;23.432;2023-02-03T16:53:40;17.08;;;7.75;;
41685;SDS011;27370;42.764;23.432;2023-02-03T16:56:08;16.50;;;7.17;;
41685;SDS011;27370;42.764;23.432;2023-02-03T16:58:35;15.95;;;7.90;;
41685;SDS011;27370;42.764;23.432;2023-02-03T17:01:01;20.27;;;8.60;;
41685;SDS011;27370;42.764;23.432;2023-02-03T17:03:29;19.77;;;10.15;;
41685;SDS011;27370;42.764;23.432;2023-02-03T17:06:00;19.40;;;9.50;;
41685;SDS011;27370;42.764;23.432;2023-02-03T17:08:28;16.50;;;8.50;;
41685;SDS011;27370;42.764;23.432;2023-02-03T17:10:53;13.73;;;6.25;;
41685;SDS011;27370;42.764;23.432;2023-02-03T17:13:20;18.88;;;8.88;;
41685;SDS011;27370;42.764;23.432;2023-02-03T17:15:48;18.50;;;8.50;;
41685;SDS011;27370;42.764;23.432;2023-02-03T17:18:17;19.63;;;9.52;;
41685;SDS011;27370;42.764;23.432;2023-02-03T17:20:43;21.70;;;10.30;;
41685;SDS011;27370;42.764;23.432;2023-02-03T17:23:09;20.77;;;9.95;;
41685;SDS011;27370;42.764;23.432;2023-02-03T17:25:36;20.35;;;10.32;;
41685;SDS011;27370;42.764;23.432;2023-02-03T17:28:07;21.73;;;9.82;;
41685;SDS011;27370;42.764;23.432;2023-02-03T17:30:33;15.20;;;5.75;;
41685;SDS011;27370;42.764;23.432;2023-02-03T17:33:00;15.23;;;7.53;;
41685;SDS011;27370;42.764;23.432;2023-02-03T17:35:27;14.98;;;7.82;;
41685;SDS011;27370;42.764;23.432;2023-02-03T17:37:53;17.83;;;9.57;;
41685;SDS011;27370;42.764;23.432;2023-02-03T17:40:19;16.73;;;6.80;;
41685;SDS011;27370;42.764;23.432;2023-02-03T17:42:44;21.00;;;7.68;;
41685;SDS011;27370;42.764;23.432;2023-02-03T17:45:10;21.80;;;10.27;;
41685;SDS011;27370;42.764;23.432;2023-02-03T17:47:36;24.15;;;12.40;;